Time;durP1;ratioP1;P1;durP2;ratioP2;P2;SDS_P1;SDS_P2;PMS_P1;PMS_P2;Temp;Humidity;BMP_temperature;BMP_pressure;BME280_temperature;BME280_humidity;BME280_pressure;Samples;Min_cycle;Max_cycle;Signal;HPM_P1;HPM_P2
2024/01/09 00:02:05;;;;;;;6.80;2.15;;;3.80;99.90;;;;;;5066632;28;20032;-45
2024/01/09 00:04:31;;;;;;;9.60;2.40;;;3.80;99.90;;;;;;5066590;28;20092;-45
2024/01/09 00:06:56;;;;;;;11.13;3.22;;;3.80;99.90;;;;;;5066538;28;20024;-46
2024/01/09 00:09:22;;;;;;;4.05;1.83;;;3.80;99.90;;;;;;5066122;28;20052;-47
2024/01/09 00:11:48;;;;;;;8.73;2.33;;;3.80;99.90;;;;;;5066343;28;20052;-45
2024/01/09 00:14:15;;;;;;;7.72;2.10;;;3.70;99.90;;;;;;5066293;28;20215;-45
2024/01/09 00:16:41;;;;;;;6.97;2.22;;;3.70;99.90;;;;;;5065079;28;20074;-45
2024/01/09 00:19:07;;;;;;;5.82;1.75;;;3.70;99.90;;;;;;5065897;28;20032;-48
2024/01/09 00:21:32;;;;;;;6.50;2.20;;;3.80;99.90;;;;;;5065982;28;20139;-46
2024/01/09 00:23:58;;;;;;;11.57;2.40;;;3.70;99.90;;;;;;5066139;28;20013;-47
2024/01/09 00:26:24;;;;;;;6.55;2.20;;;3.70;99.90;;;;;;5048508;28;20033;-45
2024/01/09 00:28:49;;;;;;;3.75;1.63;;;3.70;99.90;;;;;;5064990;28;20242;-45
2024/01/09 00:31:15;;;;;;;7.88;2.40;;;3.60;99.90;;;;;;5066018;28;20016;-45
2024/01/09 00:33:41;;;;;;;5.95;2.65;;;3.60;99.90;;;;;;5065759;28;20025;-46
2024/01/09 00:36:07;;;;;;;7.82;2.30;;;3.70;99.90;;;;;;5065867;28;20167;-46
2024/01/09 00:38:32;;;;;;;8.15;2.22;;;3.70;99.90;;;;;;5065898;28;20021;-45
2024/01/09 00:40:58;;;;;;;6.45;1.83;;;3.70;99.90;;;;;;5066394;28;20200;-45
2024/01/09 00:43:24;;;;;;;9.10;2.15;;;3.70;99.90;;;;;;5065793;28;20025;-45
2024/01/09 00:45:49;;;;;;;9.05;2.20;;;3.60;99.90;;;;;;5065762;28;20279;-46
2024/01/09 00:48:15;;;;;;;7.15;2.60;;;3.70;99.90;;;;;;5065765;28;20353;-45
2024/01/09 00:50:41;;;;;;;4.50;2.00;;;3.70;99.90;;;;;;5065701;28;20098;-45
2024/01/09 00:53:07;;;;;;;8.85;2.35;;;3.70;99.90;;;;;;5065603;28;20051;-45
2024/01/09 00:55:33;;;;;;;6.47;2.25;;;3.60;99.90;;;;;;5065765;28;20024;-45
2024/01/09 00:57:58;;;;;;;6.28;2.58;;;3.60;99.90;;;;;;5065349;28;20043;-48
2024/01/09 01:00:24;;;;;;;3.88;1.40;;;3.60;99.90;;;;;;5065613;28;20109;-45
2024/01/09 01:02:50;;;;;;;9.50;1.95;;;3.70;99.90;;;;;;5065125;28;20024;-46
2024/01/09 01:05:15;;;;;;;3.85;2.13;;;3.70;99.90;;;;;;5065263;28;20088;-45
2024/01/09 01:07:41;;;;;;;5.95;2.28;;;3.70;99.90;;;;;;5064358;28;20094;-46
2024/01/09 01:10:11;;;;;;;6.57;2.55;;;3.60;99.90;;;;;;5065314;28;20334;-44
2024/01/09 01:12:37;;;;;;;7.68;2.38;;;3.60;99.90;;;;;;5065567;28;20041;-46
2024/01/09 01:15:04;;;;;;;7.85;2.35;;;3.60;99.90;;;;;;5064095;28;20131;-45
2024/01/09 01:17:30;;;;;;;6.38;2.30;;;3.60;99.90;;;;;;5065249;28;20025;-45
2024/01/09 01:19:55;;;;;;;5.63;2.15;;;3.60;99.90;;;;;;5065392;28;20032;-44
2024/01/09 01:22:21;;;;;;;8.10;2.60;;;3.60;99.90;;;;;;5064904;28;20298;-44
2024/01/09 01:24:46;;;;;;;7.30;2.10;;;3.60;99.90;;;;;;5064743;28;20075;-44
2024/01/09 01:27:12;;;;;;;8.43;2.60;;;3.60;99.90;;;;;;5065337;28;20040;-47
2024/01/09 01:29:38;;;;;;;5.35;1.75;;;3.60;99.90;;;;;;5068438;28;20033;-45
2024/01/09 01:32:09;;;;;;;7.85;2.10;;;3.50;99.90;;;;;;5069382;28;20025;-45
2024/01/09 01:34:35;;;;;;;8.23;2.10;;;3.60;99.90;;;;;;5069507;28;20071;-44
2024/01/09 01:37:00;;;;;;;10.93;2.20;;;3.50;99.90;;;;;;5069298;28;20104;-44
2024/01/09 01:39:26;;;;;;;6.85;2.20;;;3.60;99.90;;;;;;5069143;28;20033;-43
2024/01/09 01:41:52;;;;;;;8.85;2.47;;;3.60;99.90;;;;;;5067993;28;20029;-45
2024/01/09 01:44:18;;;;;;;10.63;2.40;;;3.60;99.90;;;;;;5069256;28;20048;-44
2024/01/09 01:46:44;;;;;;;4.50;1.73;;;3.50;99.90;;;;;;5068032;28;20028;-44
2024/01/09 01:49:12;;;;;;;10.95;2.72;;;3.60;99.90;;;;;;5068961;28;20037;-44
2024/01/09 01:51:39;;;;;;;11.55;2.40;;;3.60;99.90;;;;;;5051462;28;20330;-44
2024/01/09 01:54:05;;;;;;;8.52;2.30;;;3.60;99.90;;;;;;5067848;28;20096;-45
2024/01/09 01:56:30;;;;;;;7.70;2.47;;;3.60;99.90;;;;;;5068779;28;20044;-45
2024/01/09 01:58:56;;;;;;;11.63;3.58;;;3.60;99.90;;;;;;5068918;28;20032;-47
2024/01/09 02:01:22;;;;;;;15.02;2.92;;;3.60;99.90;;;;;;5067960;28;20021;-45
2024/01/09 02:03:47;;;;;;;6.30;1.83;;;3.70;99.90;;;;;;5068695;28;20057;-45
2024/01/09 02:06:13;;;;;;;10.73;2.08;;;3.70;99.90;;;;;;5051169;28;20033;-45
2024/01/09 02:08:39;;;;;;;7.03;2.28;;;3.70;99.90;;;;;;5050812;28;20063;-45
2024/01/09 02:11:05;;;;;;;8.60;2.35;;;3.60;99.90;;;;;;5068610;28;20032;-47
2024/01/09 02:13:31;;;;;;;6.18;2.10;;;3.60;99.90;;;;;;5068565;28;20052;-47
2024/01/09 02:15:56;;;;;;;9.60;2.30;;;3.60;99.90;;;;;;5068469;28;20025;-46
2024/01/09 02:18:22;;;;;;;9.60;2.50;;;3.60;99.90;;;;;;5051026;28;20033;-47
2024/01/09 02:20:48;;;;;;;8.27;1.90;;;3.60;99.90;;;;;;5068520;28;20029;-45
2024/01/09 02:23:14;;;;;;;8.20;2.20;;;3.60;99.90;;;;;;5068022;28;20098;-48
2024/01/09 02:25:39;;;;;;;9.82;2.20;;;3.60;99.90;;;;;;5067159;28;20029;-49
2024/01/09 02:28:08;;;;;;;9.45;2.25;;;3.60;99.90;;;;;;5068246;28;20033;-46
2024/01/09 02:30:33;;;;;;;5.95;2.47;;;3.60;99.90;;;;;;5067832;28;20032;-46
2024/01/09 02:32:59;;;;;;;5.72;1.98;;;3.60;99.90;;;;;;5068001;28;20033;-48
2024/01/09 02:35:25;;;;;;;8.43;2.22;;;3.60;99.90;;;;;;5068164;28;20302;-48
2024/01/09 02:37:51;;;;;;;9.07;2.17;;;3.60;99.90;;;;;;5068046;28;20171;-48
2024/01/09 02:40:16;;;;;;;5.72;1.98;;;3.60;99.90;;;;;;5066371;28;20084;-46
2024/01/09 02:42:42;;;;;;;7.03;2.15;;;3.60;99.90;;;;;;5067564;28;20095;-46
2024/01/09 02:45:10;;;;;;;9.30;2.17;;;3.60;99.90;;;;;;5067947;28;20040;-46
2024/01/09 02:47:35;;;;;;;10.20;2.42;;;3.60;99.90;;;;;;5067950;28;20105;-46
2024/01/09 02:50:01;;;;;;;4.25;1.70;;;3.60;99.90;;;;;;5067773;28;20037;-45
2024/01/09 02:52:27;;;;;;;9.15;2.30;;;3.60;99.90;;;;;;5067902;28;20021;-45
2024/01/09 02:54:52;;;;;;;8.98;2.30;;;3.60;99.90;;;;;;5067840;28;20025;-45
2024/01/09 02:57:18;;;;;;;4.40;2.28;;;3.60;99.90;;;;;;5067680;28;20264;-45
2024/01/09 02:59:44;;;;;;;9.55;2.10;;;3.60;99.90;;;;;;5066427;28;20233;-46
2024/01/09 03:02:09;;;;;;;6.63;2.17;;;3.60;99.90;;;;;;5067656;28;20303;-46
2024/01/09 03:04:35;;;;;;;8.70;2.00;;;3.50;99.90;;;;;;5067679;28;20071;-45
2024/01/09 03:07:01;;;;;;;12.13;2.35;;;3.50;99.90;;;;;;5067659;28;20021;-47
2024/01/09 03:09:26;;;;;;;8.30;2.38;;;3.50;99.90;;;;;;5067194;28;20126;-46
2024/01/09 03:11:53;;;;;;;6.50;2.10;;;3.50;99.90;;;;;;5066344;28;20036;-45
2024/01/09 03:14:19;;;;;;;9.60;2.05;;;3.50;99.90;;;;;;5067082;28;20047;-46
2024/01/09 03:16:48;;;;;;;7.75;2.13;;;3.50;99.90;;;;;;5066294;28;20251;-46
2024/01/09 03:19:14;;;;;;;5.65;1.88;;;3.40;99.90;;;;;;5067510;28;20295;-46
2024/01/09 03:21:40;;;;;;;12.13;2.35;;;3.40;99.90;;;;;;5067336;28;20025;-45
2024/01/09 03:24:06;;;;;;;9.00;2.17;;;3.50;99.90;;;;;;5067292;28;20025;-45
2024/01/09 03:26:31;;;;;;;6.28;1.70;;;3.50;99.90;;;;;;5067283;28;20306;-45
2024/01/09 03:28:58;;;;;;;7.70;2.05;;;3.60;99.90;;;;;;5067796;28;20179;-46
2024/01/09 03:31:24;;;;;;;5.65;1.88;;;3.60;99.90;;;;;;5066993;28;20021;-46
2024/01/09 03:33:49;;;;;;;9.80;2.45;;;3.60;99.90;;;;;;5066204;28;20155;-46
2024/01/09 03:36:15;;;;;;;6.28;2.58;;;3.60;99.90;;;;;;5067187;28;20046;-48
2024/01/09 03:38:41;;;;;;;11.65;1.98;;;3.60;99.90;;;;;;5067087;28;20033;-48
2024/01/09 03:41:07;;;;;;;8.75;2.95;;;3.60;99.90;;;;;;5066722;28;20029;-45
2024/01/09 03:43:33;;;;;;;5.78;1.88;;;3.60;99.90;;;;;;5066568;28;20017;-49
2024/01/09 03:45:58;;;;;;;5.32;1.70;;;3.60;99.90;;;;;;5066931;28;20025;-47
2024/01/09 03:48:24;;;;;;;10.68;2.50;;;3.70;99.90;;;;;;5066976;28;20235;-48
2024/01/09 03:50:50;;;;;;;12.45;2.47;;;3.60;99.90;;;;;;5065890;28;20020;-46
2024/01/09 03:53:15;;;;;;;9.60;1.77;;;3.60;99.90;;;;;;5065755;28;20031;-46
2024/01/09 03:55:41;;;;;;;4.78;1.67;;;3.50;99.90;;;;;;5049208;28;20190;-49
2024/01/09 03:58:07;;;;;;;3.72;1.50;;;3.50;99.90;;;;;;5065776;28;20230;-48
2024/01/09 04:00:33;;;;;;;11.40;2.22;;;3.50;99.90;;;;;;5066694;28;20029;-46
2024/01/09 04:02:59;;;;;;;6.00;1.73;;;3.50;99.90;;;;;;5065324;28;20064;-45
2024/01/09 04:05:25;;;;;;;13.27;2.30;;;3.50;99.90;;;;;;5065576;28;20021;-45
2024/01/09 04:07:51;;;;;;;8.25;2.00;;;3.50;99.90;;;;;;5066302;28;20064;-47
2024/01/09 04:10:17;;;;;;;8.88;2.75;;;3.50;99.90;;;;;;5066210;28;20301;-46
2024/01/09 04:12:42;;;;;;;6.35;1.65;;;3.40;99.90;;;;;;5066525;28;20032;-46
2024/01/09 04:15:08;;;;;;;5.55;1.73;;;3.40;99.90;;;;;;5065141;28;20032;-46
2024/01/09 04:17:34;;;;;;;9.77;2.20;;;3.40;99.90;;;;;;5066162;28;20056;-46
2024/01/09 04:20:02;;;;;;;10.35;2.03;;;3.40;99.90;;;;;;5066152;28;20021;-46
2024/01/09 04:22:27;;;;;;;8.75;1.85;;;3.40;99.90;;;;;;5066246;28;20079;-46
2024/01/09 04:24:53;;;;;;;7.47;2.10;;;3.40;99.90;;;;;;5066418;28;20037;-46
2024/01/09 04:27:18;;;;;;;12.38;2.65;;;3.40;99.90;;;;;;5065842;28;20272;-48
2024/01/09 04:29:44;;;;;;;6.97;2.20;;;3.40;99.90;;;;;;5066105;28;20033;-47
2024/01/09 04:32:10;;;;;;;8.75;2.13;;;3.30;99.90;;;;;;5065980;28;20043;-48
2024/01/09 04:34:37;;;;;;;6.18;1.55;;;3.30;99.90;;;;;;5065649;28;20025;-49
2024/01/09 04:37:02;;;;;;;11.05;1.80;;;3.30;99.90;;;;;;5065515;28;20029;-47
2024/01/09 04:39:28;;;;;;;3.70;1.40;;;3.30;99.90;;;;;;5064868;28;20036;-45
2024/01/09 04:41:54;;;;;;;7.47;1.90;;;3.30;99.90;;;;;;5065720;28;20080;-46
2024/01/09 04:44:19;;;;;;;7.13;2.00;;;3.30;99.90;;;;;;5065756;28;20029;-47
2024/01/09 04:46:45;;;;;;;7.53;1.98;;;3.30;99.90;;;;;;5065753;28;20056;-48
2024/01/09 04:49:11;;;;;;;6.88;2.08;;;3.30;99.90;;;;;;5065542;28;20043;-46
2024/01/09 04:51:36;;;;;;;11.20;2.22;;;3.30;99.90;;;;;;5064517;28;20025;-49
2024/01/09 04:54:02;;;;;;;7.53;2.00;;;3.30;99.90;;;;;;5065599;28;20037;-49
2024/01/09 04:56:27;;;;;;;7.97;2.55;;;3.40;99.90;;;;;;5065572;28;20029;-46
2024/01/09 04:58:53;;;;;;;11.88;2.03;;;3.40;99.90;;;;;;5065726;28;20309;-45
2024/01/09 05:01:22;;;;;;;7.95;1.85;;;3.40;99.90;;;;;;5065585;28;20170;-47
2024/01/09 05:03:48;;;;;;;9.63;2.17;;;3.40;99.90;;;;;;5064092;28;20025;-46
2024/01/09 05:06:17;;;;;;;6.53;1.88;;;3.40;99.90;;;;;;5064284;28;20074;-47
2024/01/09 05:08:43;;;;;;;4.15;1.25;;;3.30;99.90;;;;;;5065340;28;20076;-46
2024/01/09 05:11:09;;;;;;;10.52;2.15;;;3.40;99.90;;;;;;5065645;28;20036;-46
2024/01/09 05:13:35;;;;;;;7.05;2.00;;;3.40;99.90;;;;;;5065522;28;20080;-48
2024/01/09 05:16:00;;;;;;;6.13;1.83;;;3.40;99.90;;;;;;5065314;28;20313;-47
2024/01/09 05:18:26;;;;;;;7.07;1.88;;;3.30;99.90;;;;;;5065282;28;20029;-45
2024/01/09 05:20:52;;;;;;;5.22;1.73;;;3.30;99.90;;;;;;5064419;28;20032;-46
2024/01/09 05:23:17;;;;;;;8.07;2.00;;;3.30;99.90;;;;;;5064904;28;20108;-45
2024/01/09 05:25:43;;;;;;;6.25;2.10;;;3.30;99.90;;;;;;5065482;28;20032;-44
2024/01/09 05:28:09;;;;;;;9.63;2.55;;;3.20;99.90;;;;;;5065286;28;20025;-45
2024/01/09 05:30:35;;;;;;;7.95;1.60;;;3.20;99.90;;;;;;5064306;28;20194;-46
2024/01/09 05:33:00;;;;;;;7.25;2.00;;;3.20;99.90;;;;;;5064293;28;20282;-44
2024/01/09 05:35:26;;;;;;;7.65;2.33;;;3.10;99.90;;;;;;5065243;28;20044;-44
2024/01/09 05:37:52;;;;;;;8.73;1.90;;;3.10;99.90;;;;;;5064943;28;20090;-47
2024/01/09 05:40:17;;;;;;;3.55;1.73;;;3.10;99.90;;;;;;5063961;28;20025;-45
2024/01/09 05:42:43;;;;;;;8.07;2.40;;;3.10;99.90;;;;;;5065245;28;20278;-45
2024/01/09 05:45:10;;;;;;;8.35;2.50;;;3.20;99.90;;;;;;5063899;28;20045;-44
2024/01/09 05:47:35;;;;;;;8.88;2.05;;;3.30;99.90;;;;;;5064935;28;20040;-45
2024/01/09 05:50:01;;;;;;;6.40;2.03;;;3.20;99.90;;;;;;5065062;28;20017;-44
2024/01/09 05:52:27;;;;;;;6.18;2.03;;;3.20;99.90;;;;;;5065038;28;20029;-45
2024/01/09 05:54:53;;;;;;;8.07;2.10;;;3.20;99.90;;;;;;5063614;28;20029;-45
2024/01/09 05:57:18;;;;;;;2.85;1.70;;;3.20;99.90;;;;;;5064878;28;20029;-45
2024/01/09 05:59:44;;;;;;;9.65;2.78;;;3.20;99.90;;;;;;5047310;28;20033;-44
2024/01/09 06:02:10;;;;;;;11.07;2.15;;;3.10;99.90;;;;;;5065016;28;20084;-45
2024/01/09 06:04:35;;;;;;;9.18;2.78;;;3.10;99.90;;;;;;5065096;28;20013;-44
2024/01/09 06:07:01;;;;;;;13.40;2.20;;;3.10;99.90;;;;;;5064864;28;20186;-46
2024/01/09 06:09:27;;;;;;;7.15;2.45;;;3.10;99.90;;;;;;5064660;28;20072;-45
2024/01/09 06:11:52;;;;;;;10.35;2.22;;;3.10;99.90;;;;;;5064411;28;20049;-44
2024/01/09 06:14:18;;;;;;;10.88;1.90;;;3.00;99.90;;;;;;5064817;28;20045;-44
2024/01/09 06:16:44;;;;;;;9.70;2.28;;;3.00;99.90;;;;;;5068040;28;20059;-44
2024/01/09 06:19:09;;;;;;;10.23;2.15;;;3.00;99.90;;;;;;5068471;28;20028;-45
2024/01/09 06:21:35;;;;;;;4.60;1.90;;;3.00;99.90;;;;;;5068411;28;20048;-45
2024/01/09 06:24:01;;;;;;;5.93;2.00;;;3.00;99.90;;;;;;5068472;28;20020;-45
2024/01/09 06:26:27;;;;;;;8.07;2.15;;;3.00;99.90;;;;;;5068039;28;20294;-47
2024/01/09 06:28:52;;;;;;;5.47;1.63;;;3.00;99.90;;;;;;5068388;28;20096;-47
2024/01/09 06:31:18;;;;;;;10.75;2.42;;;3.00;99.90;;;;;;5067104;28;20024;-45
2024/01/09 06:33:43;;;;;;;8.40;2.03;;;3.00;99.90;;;;;;5067401;28;20036;-47
2024/01/09 06:36:09;;;;;;;11.18;2.40;;;3.00;99.90;;;;;;5067077;28;20033;-45
2024/01/09 06:38:35;;;;;;;10.68;2.53;;;3.00;99.90;;;;;;5068061;28;20032;-44
2024/01/09 06:41:00;;;;;;;7.93;1.85;;;3.00;99.90;;;;;;5068124;28;20313;-44
2024/01/09 06:43:26;;;;;;;2.47;1.50;;;3.00;99.90;;;;;;5067913;28;20056;-47
2024/01/09 06:45:52;;;;;;;6.93;2.22;;;3.00;99.90;;;;;;5067694;28;20028;-49
2024/01/09 06:48:18;;;;;;;7.65;2.28;;;3.00;99.90;;;;;;5067996;28;20218;-46
2024/01/09 06:50:43;;;;;;;10.90;2.28;;;3.00;99.90;;;;;;5067863;28;20029;-46
2024/01/09 06:53:09;;;;;;;8.45;2.13;;;3.00;99.90;;;;;;5067750;28;20075;-48
2024/01/09 06:55:35;;;;;;;14.18;2.85;;;3.00;99.90;;;;;;5067730;28;20055;-44
2024/01/09 06:58:02;;;;;;;6.28;2.60;;;2.90;99.90;;;;;;5067528;28;20041;-46
2024/01/09 07:00:28;;;;;;;8.95;2.30;;;2.90;99.90;;;;;;5067679;28;20036;-45
2024/01/09 07:02:54;;;;;;;6.55;1.80;;;2.90;99.90;;;;;;5067775;28;20013;-47
2024/01/09 07:05:19;;;;;;;9.18;2.20;;;2.90;99.90;;;;;;5067641;28;20283;-47
2024/01/09 07:07:45;;;;;;;9.20;1.98;;;2.90;99.90;;;;;;5067541;28;20039;-47
2024/01/09 07:10:11;;;;;;;10.82;2.28;;;2.80;99.90;;;;;;5067730;28;20108;-46
2024/01/09 07:12:36;;;;;;;3.63;1.60;;;2.80;99.90;;;;;;5067708;28;20039;-46
2024/01/09 07:15:02;;;;;;;7.32;2.17;;;2.80;99.90;;;;;;5067433;28;20088;-45
2024/01/09 07:17:28;;;;;;;6.18;2.22;;;2.80;99.90;;;;;;5068061;28;20055;-46
2024/01/09 07:19:53;;;;;;;5.70;2.05;;;2.80;99.90;;;;;;5067368;28;20063;-46
2024/01/09 07:22:19;;;;;;;7.57;2.45;;;2.80;99.90;;;;;;5067371;28;20021;-46
2024/01/09 07:24:45;;;;;;;6.78;2.30;;;2.80;99.90;;;;;;5066428;28;20028;-45
2024/01/09 07:27:12;;;;;;;14.05;2.50;;;2.80;99.90;;;;;;5049138;28;20033;-47
2024/01/09 07:29:37;;;;;;;10.00;2.35;;;2.80;99.90;;;;;;5067435;28;20247;-45
2024/01/09 07:32:03;;;;;;;5.72;1.83;;;2.70;99.90;;;;;;5067126;28;20032;-46
2024/01/09 07:34:29;;;;;;;6.70;1.80;;;2.70;99.90;;;;;;5066700;28;20325;-46
2024/01/09 07:36:55;;;;;;;6.47;1.92;;;2.70;99.90;;;;;;5067044;28;20025;-46
2024/01/09 07:39:20;;;;;;;8.98;1.90;;;2.70;99.90;;;;;;5065869;28;20029;-47
2024/01/09 07:41:46;;;;;;;9.88;2.47;;;2.70;99.90;;;;;;5066675;28;20029;-46
2024/01/09 07:44:12;;;;;;;6.95;2.15;;;2.70;99.90;;;;;;5066877;28;20032;-46
2024/01/09 07:46:37;;;;;;;9.82;2.28;;;2.70;99.90;;;;;;5049258;28;20032;-46
2024/01/09 07:49:03;;;;;;;7.65;2.28;;;2.70;99.90;;;;;;5066749;28;20094;-46
2024/01/09 07:51:29;;;;;;;6.32;2.10;;;2.70;99.90;;;;;;5066502;28;20059;-45
2024/01/09 07:53:54;;;;;;;5.88;1.92;;;2.80;99.90;;;;;;5067009;28;20025;-46
2024/01/09 07:56:21;;;;;;;5.53;2.00;;;2.80;99.90;;;;;;5066622;28;20218;-45
2024/01/09 07:58:47;;;;;;;5.57;1.90;;;2.80;99.90;;;;;;5065523;28;20116;-46
2024/01/09 08:01:13;;;;;;;8.13;2.15;;;2.80;99.90;;;;;;5065558;28;20025;-46
2024/01/09 08:03:40;;;;;;;4.60;1.90;;;2.80;99.90;;;;;;5066362;28;20190;-47
2024/01/09 08:06:16;;;;;;;7.25;1.90;;;2.80;99.90;;;;;;5065116;28;20044;-46
2024/01/09 08:08:42;;;;;;;12.63;3.58;;;2.70;99.90;;;;;;5065217;28;20094;-46
2024/01/09 08:11:08;;;;;;;6.07;1.55;;;2.70;99.90;;;;;;5066236;28;20044;-47
2024/01/09 08:13:34;;;;;;;9.30;2.67;;;2.70;99.90;;;;;;5066165;28;20021;-46
2024/01/09 08:16:00;;;;;;;8.63;1.92;;;2.70;99.90;;;;;;5066146;28;20032;-47
2024/01/09 08:18:25;;;;;;;10.10;2.22;;;2.70;99.90;;;;;;5065034;28;20036;-47
2024/01/09 08:20:51;;;;;;;7.28;2.08;;;2.70;99.90;;;;;;5066162;28;20275;-47
2024/01/09 08:23:17;;;;;;;5.22;1.63;;;2.80;99.90;;;;;;5065752;28;20242;-46
2024/01/09 08:25:42;;;;;;;9.35;2.10;;;2.80;99.90;;;;;;5066190;28;20024;-46
2024/01/09 08:28:09;;;;;;;7.07;1.70;;;2.80;99.90;;;;;;5065875;28;20025;-48
2024/01/09 08:30:35;;;;;;;7.45;1.70;;;2.80;99.90;;;;;;5066225;28;20024;-46
2024/01/09 08:33:00;;;;;;;6.82;2.08;;;2.80;99.90;;;;;;5065963;28;20021;-47
2024/01/09 08:35:26;;;;;;;9.75;2.30;;;2.80;99.90;;;;;;5065634;28;20186;-46
2024/01/09 08:37:52;;;;;;;10.73;2.53;;;2.80;99.90;;;;;;5065166;28;20044;-46
2024/01/09 08:40:17;;;;;;;6.75;2.10;;;2.80;99.90;;;;;;5065718;28;20049;-46
2024/01/09 08:42:43;;;;;;;4.22;1.90;;;2.80;99.90;;;;;;5065486;28;20043;-46
2024/01/09 08:45:09;;;;;;;7.50;2.53;;;2.80;99.90;;;;;;5065126;28;20033;-48
2024/01/09 08:47:35;;;;;;;5.00;1.98;;;2.80;99.90;;;;;;5065046;28;20075;-48
2024/01/09 08:50:02;;;;;;;7.97;2.55;;;2.80;99.90;;;;;;5065377;28;20020;-46
2024/01/09 08:52:27;;;;;;;4.85;1.75;;;2.80;99.90;;;;;;5065536;28;20107;-47
2024/01/09 08:54:53;;;;;;;4.90;1.70;;;2.80;99.90;;;;;;5065382;28;20016;-46
2024/01/09 08:57:20;;;;;;;9.55;2.20;;;2.80;99.90;;;;;;5065351;28;20032;-46
2024/01/09 08:59:46;;;;;;;6.53;2.00;;;2.90;99.90;;;;;;5065146;28;20325;-47
2024/01/09 09:02:11;;;;;;;8.90;2.30;;;2.90;99.90;;;;;;5065302;28;20025;-46
2024/01/09 09:04:37;;;;;;;7.90;2.90;;;2.90;99.90;;;;;;5065431;28;20021;-46
2024/01/09 09:07:03;;;;;;;12.38;2.75;;;2.90;99.90;;;;;;5064902;28;20033;-47
2024/01/09 09:09:30;;;;;;;7.93;2.25;;;2.90;99.90;;;;;;5064879;28;20215;-46
2024/01/09 09:11:58;;;;;;;5.38;2.13;;;2.90;99.90;;;;;;5064850;28;20071;-46
2024/01/09 09:14:24;;;;;;;10.48;3.08;;;3.00;99.90;;;;;;5048133;28;20036;-47
2024/01/09 09:16:50;;;;;;;4.88;1.80;;;3.00;99.90;;;;;;5065175;28;20055;-51
2024/01/09 09:19:17;;;;;;;14.10;3.03;;;3.00;99.90;;;;;;5065336;28;20021;-47
2024/01/09 09:21:43;;;;;;;6.22;2.25;;;3.00;99.90;;;;;;5065103;28;20021;-46
2024/01/09 09:24:09;;;;;;;5.32;2.55;;;3.00;99.90;;;;;;5065834;28;20228;-48
2024/01/09 09:26:38;;;;;;;7.90;2.00;;;3.00;99.90;;;;;;5063815;28;20020;-46
2024/01/09 09:29:03;;;;;;;13.13;2.67;;;3.10;99.90;;;;;;5064674;28;20093;-48
2024/01/09 09:31:29;;;;;;;11.95;2.28;;;3.80;99.90;;;;;;5065005;28;20029;-45
2024/01/09 09:33:55;;;;;;;6.70;2.05;;;4.30;99.90;;;;;;5063832;28;20036;-45
2024/01/09 09:36:21;;;;;;;11.23;2.47;;;4.60;99.90;;;;;;5064050;28;20048;-46
2024/01/09 09:38:47;;;;;;;10.30;2.70;;;5.00;99.90;;;;;;5065487;28;20082;-44
2024/01/09 09:41:16;;;;;;;8.73;2.80;;;5.10;99.90;;;;;;5064855;28;20218;-46
2024/01/09 09:43:45;;;;;;;11.77;2.63;;;5.30;99.90;;;;;;5064811;28;20282;-47
2024/01/09 09:46:11;;;;;;;10.18;3.42;;;5.50;99.90;;;;;;5063745;28;20092;-48
2024/01/09 09:48:37;;;;;;;14.25;2.20;;;5.70;99.90;;;;;;5047106;28;20056;-48
2024/01/09 09:51:03;;;;;;;6.00;2.20;;;5.70;99.90;;;;;;5068177;28;20198;-49
2024/01/09 09:53:31;;;;;;;11.77;3.10;;;5.40;99.90;;;;;;5067792;28;20029;-47
2024/01/09 09:55:57;;;;;;;9.07;2.80;;;6.00;99.90;;;;;;5068183;28;20021;-48
2024/01/09 09:58:23;;;;;;;8.95;2.13;;;5.40;99.90;;;;;;5068638;28;20294;-47
2024/01/09 10:00:51;;;;;;;7.00;1.90;;;4.50;99.90;;;;;;5067782;28;20035;-48
2024/01/09 10:03:17;;;;;;;14.07;3.35;;;4.10;99.90;;;;;;5068523;28;20017;-47
2024/01/09 10:05:43;;;;;;;11.60;2.95;;;4.00;99.90;;;;;;5051097;28;20156;-44
2024/01/09 10:08:09;;;;;;;11.63;3.45;;;3.80;99.90;;;;;;5068604;28;20092;-45
2024/01/09 10:10:34;;;;;;;8.60;2.65;;;3.70;99.90;;;;;;5068400;28;20201;-45
2024/01/09 10:13:00;;;;;;;6.82;2.20;;;3.70;99.90;;;;;;5068551;28;20044;-45
2024/01/09 10:15:26;;;;;;;9.10;2.58;;;3.70;99.90;;;;;;5050811;28;20048;-45
2024/01/09 10:17:51;;;;;;;11.10;3.50;;;3.60;99.90;;;;;;5067102;28;20089;-45
2024/01/09 10:20:17;;;;;;;7.45;2.83;;;3.60;99.90;;;;;;5068352;28;20029;-45
2024/01/09 10:22:43;;;;;;;7.07;2.20;;;3.60;99.90;;;;;;5067151;28;20017;-45
2024/01/09 10:25:10;;;;;;;5.13;1.85;;;3.60;99.90;;;;;;5067746;28;20020;-44
2024/01/09 10:27:36;;;;;;;9.00;2.17;;;3.60;99.90;;;;;;5067603;28;20187;-44
2024/01/09 10:30:07;;;;;;;6.38;2.78;;;3.60;99.90;;;;;;5067892;28;20087;-44
2024/01/09 10:32:33;;;;;;;6.35;2.58;;;3.60;99.90;;;;;;5068044;28;20131;-44
2024/01/09 10:34:59;;;;;;;8.63;2.40;;;3.60;99.90;;;;;;5068088;28;20041;-44
2024/01/09 10:37:25;;;;;;;6.80;2.47;;;3.60;99.90;;;;;;5067551;28;20033;-45
2024/01/09 10:39:50;;;;;;;7.50;2.00;;;3.60;99.90;;;;;;5067740;28;20021;-44
2024/01/09 10:42:16;;;;;;;5.72;2.10;;;3.60;99.90;;;;;;5066610;28;20040;-44
2024/01/09 10:44:42;;;;;;;9.73;2.65;;;3.50;99.90;;;;;;5067697;28;20084;-45
2024/01/09 10:47:13;;;;;;;4.80;2.00;;;3.60;99.90;;;;;;5066814;28;20037;-45
2024/01/09 10:49:40;;;;;;;9.50;2.05;;;3.60;99.90;;;;;;5067528;28;20037;-44
2024/01/09 10:52:12;;;;;;;10.05;2.30;;;3.60;99.90;;;;;;5067369;28;20025;-45
2024/01/09 10:54:38;;;;;;;11.82;2.45;;;3.60;99.90;;;;;;5066451;28;20033;-45
2024/01/09 10:57:04;;;;;;;4.82;2.00;;;3.50;99.90;;;;;;5066252;28;20071;-44
2024/01/09 10:59:30;;;;;;;8.23;2.95;;;3.60;99.90;;;;;;5067223;28;20210;-45
2024/01/09 11:01:55;;;;;;;7.60;2.20;;;3.60;99.90;;;;;;5065682;28;20056;-45
2024/01/09 11:04:21;;;;;;;6.05;1.88;;;3.60;99.90;;;;;;5067023;28;20021;-44
2024/01/09 11:06:47;;;;;;;8.50;2.88;;;3.70;99.90;;;;;;5066448;28;20032;-45
2024/01/09 11:09:12;;;;;;;11.30;2.42;;;3.70;99.90;;;;;;5065810;28;20056;-45
2024/01/09 11:11:38;;;;;;;10.55;2.25;;;3.70;99.90;;;;;;5049900;28;20140;-45
2024/01/09 11:14:06;;;;;;;6.50;2.20;;;3.80;99.90;;;;;;5067412;28;20033;-45
2024/01/09 11:16:37;;;;;;;7.93;2.40;;;3.80;99.90;;;;;;5050185;28;20052;-45
2024/01/09 11:19:04;;;;;;;8.13;2.63;;;3.80;99.90;;;;;;5066623;28;20044;-45
2024/01/09 11:21:30;;;;;;;10.65;2.40;;;3.90;99.90;;;;;;5067125;28;20095;-45
2024/01/09 11:23:57;;;;;;;12.98;2.65;;;3.90;99.90;;;;;;5067130;28;20048;-45
2024/01/09 11:26:24;;;;;;;11.25;2.60;;;3.90;99.90;;;;;;5066909;28;20021;-45
2024/01/09 11:28:49;;;;;;;15.13;3.25;;;3.90;99.90;;;;;;5066973;28;20036;-45
2024/01/09 11:31:17;;;;;;;9.32;2.67;;;3.90;99.90;;;;;;5066990;28;20041;-46
2024/01/09 11:33:42;;;;;;;7.15;2.38;;;4.00;99.90;;;;;;5065778;28;20202;-45
2024/01/09 11:36:11;;;;;;;16.13;4.53;;;4.00;99.90;;;;;;5066426;28;20071;-45
2024/01/09 11:38:37;;;;;;;10.35;3.08;;;4.00;99.90;;;;;;5066868;28;20041;-46
2024/01/09 11:41:08;;;;;;;6.55;2.33;;;4.00;99.90;;;;;;5066550;28;20106;-46
2024/01/09 11:44:19;;;;;;;7.18;2.60;;;4.10;99.90;;;;;;5066808;28;20088;-46
2024/01/09 11:46:47;;;;;;;13.15;3.75;;;4.10;99.90;;;;;;5064448;28;20036;-45
2024/01/09 11:49:12;;;;;;;13.85;2.92;;;4.20;99.90;;;;;;5065327;28;20334;-46
2024/01/09 11:51:38;;;;;;;8.43;2.10;;;4.10;99.90;;;;;;5066021;28;20055;-46
2024/01/09 11:54:07;;;;;;;7.82;2.50;;;4.20;99.90;;;;;;5064943;28;20040;-46
2024/01/09 11:56:32;;;;;;;11.77;2.50;;;4.30;99.90;;;;;;5066329;28;20021;-48
2024/01/09 11:58:58;;;;;;;6.72;2.55;;;5.60;99.90;;;;;;5066416;28;20088;-45
2024/01/09 12:01:24;;;;;;;7.35;2.90;;;6.50;99.90;;;;;;5066047;28;20102;-50
2024/01/09 12:03:53;;;;;;;8.18;2.97;;;7.20;99.90;;;;;;5066005;28;20219;-50
2024/01/09 12:06:22;;;;;;;8.38;3.95;;;7.40;99.90;;;;;;5065068;28;20037;-51
2024/01/09 12:08:48;;;;;;;10.05;2.90;;;8.30;99.90;;;;;;5064712;28;20045;-51
2024/01/09 12:11:14;;;;;;;5.13;1.73;;;8.30;99.90;;;;;;5065858;28;20035;-51
2024/01/09 12:13:39;;;;;;;7.53;2.15;;;7.80;99.90;;;;;;5064851;28;20048;-51
2024/01/09 12:16:18;;;;;;;6.50;2.08;;;8.20;99.90;;;;;;5065918;28;20044;-51
2024/01/09 12:18:59;;;;;;;9.40;2.30;;;8.70;99.90;;;;;;5065881;28;20052;-49
2024/01/09 12:21:26;;;;;;;9.63;2.58;;;8.50;99.90;;;;;;5064816;28;20179;-49
2024/01/09 12:23:55;;;;;;;5.22;2.20;;;8.60;99.90;;;;;;5065550;28;20059;-49
2024/01/09 12:26:22;;;;;;;3.67;1.63;;;8.50;99.90;;;;;;5048720;28;20076;-48
2024/01/09 12:28:47;;;;;;;5.68;2.58;;;8.10;99.90;;;;;;5065984;28;20271;-46
2024/01/09 12:31:13;;;;;;;6.00;2.17;;;7.80;99.90;;;;;;5064910;28;20071;-50
2024/01/09 12:33:39;;;;;;;4.45;2.53;;;7.90;99.90;;;;;;5048435;28;20155;-48
2024/01/09 12:36:05;;;;;;;4.97;2.20;;;8.10;99.90;;;;;;5064810;28;20025;-51
2024/01/09 12:38:31;;;;;;;11.30;2.50;;;8.30;99.90;;;;;;5064550;28;20063;-51
2024/01/09 12:41:06;;;;;;;7.85;2.50;;;8.30;99.90;;;;;;5065741;28;20088;-46
2024/01/09 12:43:33;;;;;;;6.20;1.92;;;8.10;99.90;;;;;;5065618;28;20152;-45
2024/01/09 12:46:03;;;;;;;4.75;1.73;;;8.30;99.90;;;;;;5065448;28;20028;-49
2024/01/09 12:48:30;;;;;;;4.57;2.17;;;8.40;99.90;;;;;;5065540;28;20279;-49
2024/01/09 12:51:03;;;;;;;12.52;2.90;;;8.10;99.90;;;;;;5065652;28;20025;-50